sensor_id;sensor_type;location;lat;lon;timestamp;pressure;altitude;pressure_sealevel;temperature;humidity
75745;BME280;64359;51.366;-0.222;2023-03-01T00:00:06;102910.80;;;21.57;43.60
75745;BME280;64359;51.366;-0.222;2023-03-01T00:01:13;102908.64;;;21.57;43.48
75745;BME280;64359;51.366;-0.222;2023-03-01T00:02:18;102911.49;;;21.57;44.85
75745;BME280;64359;51.366;-0.222;2023-03-01T00:03:22;102911.84;;;21.57;43.88
75745;BME280;64359;51.366;-0.222;2023-03-01T00:04:27;102917.23;;;21.58;43.33
75745;BME280;64359;51.366;-0.222;2023-03-01T00:05:32;102917.35;;;21.59;46.00
75745;BME280;64359;51.366;-0.222;2023-03-01T00:06:36;102916.44;;;21.59;46.13
75745;BME280;64359;51.366;-0.222;2023-03-01T00:07:40;102915.55;;;21.59;45.07
75745;BME280;64359;51.366;-0.222;2023-03-01T00:08:45;102916.77;;;21.59;45.10
75745;BME280;64359;51.366;-0.222;2023-03-01T00:09:49;102917.12;;;21.59;45.32
75745;BME280;64359;51.366;-0.222;2023-03-01T00:11:03;102917.69;;;21.59;45.64
75745;BME280;64359;51.366;-0.222;2023-03-01T00:12:08;102916.38;;;21.59;45.18
75745;BME280;64359;51.366;-0.222;2023-03-01T00:13:12;102919.45;;;21.59;45.22
75745;BME280;64359;51.366;-0.222;2023-03-01T00:14:17;102921.29;;;21.59;45.68
75745;BME280;64359;51.366;-0.222;2023-03-01T00:15:21;102927.74;;;21.60;45.48
75745;BME280;64359;51.366;-0.222;2023-03-01T00:16:27;102920.02;;;21.59;45.74
75745;BME280;64359;51.366;-0.222;2023-03-01T00:17:32;102918.58;;;21.59;45.83
75745;BME280;64359;51.366;-0.222;2023-03-01T00:18:36;102919.89;;;21.58;45.78
75745;BME280;64359;51.366;-0.222;2023-03-01T00:19:41;102920.97;;;21.59;45.74
75745;BME280;64359;51.366;-0.222;2023-03-01T00:20:51;102925.85;;;21.58;44.47
75745;BME280;64359;51.366;-0.222;2023-03-01T00:21:56;102922.42;;;21.58;43.69
75745;BME280;64359;51.366;-0.222;2023-03-01T00:23:00;102925.48;;;21.58;44.02
75745;BME280;64359;51.366;-0.222;2023-03-01T00:24:05;102921.52;;;21.59;43.47
75745;BME280;64359;51.366;-0.222;2023-03-01T00:25:10;102922.80;;;21.58;44.35
75745;BME280;64359;51.366;-0.222;2023-03-01T00:26:15;102924.20;;;21.59;44.52
75745;BME280;64359;51.366;-0.222;2023-03-01T00:27:20;102928.00;;;21.59;44.84
75745;BME280;64359;51.366;-0.222;2023-03-01T00:28:24;102923.63;;;21.59;45.44
75745;BME280;64359;51.366;-0.222;2023-03-01T00:29:29;102923.29;;;21.59;44.10
75745;BME280;64359;51.366;-0.222;2023-03-01T00:30:34;102921.83;;;21.59;45.30
75745;BME280;64359;51.366;-0.222;2023-03-01T00:31:38;102927.77;;;21.59;44.22
75745;BME280;64359;51.366;-0.222;2023-03-01T00:32:43;102922.91;;;21.59;43.98
75745;BME280;64359;51.366;-0.222;2023-03-01T00:33:47;102923.05;;;21.59;43.28
75745;BME280;64359;51.366;-0.222;2023-03-01T00:34:51;102923.09;;;21.59;44.66
75745;BME280;64359;51.366;-0.222;2023-03-01T00:35:59;102922.20;;;21.59;43.98
75745;BME280;64359;51.366;-0.222;2023-03-01T00:37:03;102922.17;;;21.59;44.03
75745;BME280;64359;51.366;-0.222;2023-03-01T00:38:09;102921.42;;;21.59;45.22
75745;BME280;64359;51.366;-0.222;2023-03-01T00:39:15;102916.07;;;21.59;45.29
75745;BME280;64359;51.366;-0.222;2023-03-01T00:40:19;102917.83;;;21.59;43.82
75745;BME280;64359;51.366;-0.222;2023-03-01T00:41:24;102919.83;;;21.59;45.22
75745;BME280;64359;51.366;-0.222;2023-03-01T00:42:30;102917.46;;;21.59;45.88
75745;BME280;64359;51.366;-0.222;2023-03-01T00:43:34;102918.21;;;21.59;45.24
75745;BME280;64359;51.366;-0.222;2023-03-01T00:44:39;102916.40;;;21.59;44.95
75745;BME280;64359;51.366;-0.222;2023-03-01T00:45:43;102916.73;;;21.59;44.37
75745;BME280;64359;51.366;-0.222;2023-03-01T00:46:48;102910.98;;;21.59;43.75
75745;BME280;64359;51.366;-0.222;2023-03-01T00:47:52;102911.86;;;21.59;43.37
75745;BME280;64359;51.366;-0.222;2023-03-01T00:48:57;102911.83;;;21.59;43.83
75745;BME280;64359;51.366;-0.222;2023-03-01T00:50:01;102914.49;;;21.60;43.27
75745;BME280;64359;51.366;-0.222;2023-03-01T00:51:10;102910.32;;;21.60;43.28
75745;BME280;64359;51.366;-0.222;2023-03-01T00:52:15;102911.04;;;21.60;43.31
75745;BME280;64359;51.366;-0.222;2023-03-01T00:53:19;102912.07;;;21.61;44.51
75745;BME280;64359;51.366;-0.222;2023-03-01T00:54:24;102910.75;;;21.61;44.33
75745;BME280;64359;51.366;-0.222;2023-03-01T00:55:28;102916.58;;;21.61;43.54
75745;BME280;64359;51.366;-0.222;2023-03-01T00:56:33;102913.95;;;21.62;43.44
75745;BME280;64359;51.366;-0.222;2023-03-01T00:57:37;102914.31;;;21.62;43.63
75745;BME280;64359;51.366;-0.222;2023-03-01T00:58:42;102913.32;;;21.63;44.02
75745;BME280;64359;51.366;-0.222;2023-03-01T00:59:46;102910.23;;;21.63;43.45
75745;BME280;64359;51.366;-0.222;2023-03-01T01:00:51;102912.04;;;21.63;44.01
75745;BME280;64359;51.366;-0.222;2023-03-01T01:01:55;102910.52;;;21.64;43.51
75745;BME280;64359;51.366;-0.222;2023-03-01T01:02:59;102909.44;;;21.64;44.63
75745;BME280;64359;51.366;-0.222;2023-03-01T01:04:06;102908.70;;;21.64;43.45
75745;BME280;64359;51.366;-0.222;2023-03-01T01:05:11;102907.02;;;21.65;44.84
75745;BME280;64359;51.366;-0.222;2023-03-01T01:06:18;102906.81;;;21.65;44.36
75745;BME280;64359;51.366;-0.222;2023-03-01T01:07:23;102903.73;;;21.65;44.48
75745;BME280;64359;51.366;-0.222;2023-03-01T01:08:27;102907.35;;;21.65;44.81
75745;BME280;64359;51.366;-0.222;2023-03-01T01:09:32;102908.44;;;21.65;46.33
75745;BME280;64359;51.366;-0.222;2023-03-01T01:10:36;102904.64;;;21.65;45.60
75745;BME280;64359;51.366;-0.222;2023-03-01T01:11:40;102908.61;;;21.65;45.93
75745;BME280;64359;51.366;-0.222;2023-03-01T01:12:45;102909.35;;;21.65;45.30
75745;BME280;64359;51.366;-0.222;2023-03-01T01:13:50;102908.27;;;21.65;45.51
75745;BME280;64359;51.366;-0.222;2023-03-01T01:14:55;102907.20;;;21.64;45.17
75745;BME280;64359;51.366;-0.222;2023-03-01T01:16:03;102910.06;;;21.65;44.06
75745;BME280;64359;51.366;-0.222;2023-03-01T01:17:07;102904.13;;;21.64;45.47
75745;BME280;64359;51.366;-0.222;2023-03-01T01:18:12;102904.70;;;21.64;44.07
75745;BME280;64359;51.366;-0.222;2023-03-01T01:19:16;102903.30;;;21.64;44.75
75745;BME280;64359;51.366;-0.222;2023-03-01T01:20:20;102907.04;;;21.64;44.13
75745;BME280;64359;51.366;-0.222;2023-03-01T01:21:26;102903.41;;;21.64;44.16
75745;BME280;64359;51.366;-0.222;2023-03-01T01:22:30;102901.79;;;21.64;44.48
75745;BME280;64359;51.366;-0.222;2023-03-01T01:23:35;102902.35;;;21.64;44.70
75745;BME280;64359;51.366;-0.222;2023-03-01T01:24:39;102899.10;;;21.64;44.86
75745;BME280;64359;51.366;-0.222;2023-03-01T01:25:43;102901.27;;;21.64;46.04
75745;BME280;64359;51.366;-0.222;2023-03-01T01:26:48;102900.22;;;21.64;45.32
75745;BME280;64359;51.366;-0.222;2023-03-01T01:27:52;102900.95;;;21.63;44.92
75745;BME280;64359;51.366;-0.222;2023-03-01T01:28:57;102903.33;;;21.63;44.89
75745;BME280;64359;51.366;-0.222;2023-03-01T01:30:02;102902.78;;;21.63;45.61
75745;BME280;64359;51.366;-0.222;2023-03-01T01:31:06;102903.55;;;21.63;45.40
75745;BME280;64359;51.366;-0.222;2023-03-01T01:32:11;102900.10;;;21.63;45.09
75745;BME280;64359;51.366;-0.222;2023-03-01T01:33:15;102903.36;;;21.63;45.73
75745;BME280;64359;51.366;-0.222;2023-03-01T01:34:21;102901.04;;;21.63;45.67
75745;BME280;64359;51.366;-0.222;2023-03-01T01:35:25;102898.13;;;21.63;45.89
75745;BME280;64359;51.366;-0.222;2023-03-01T01:36:30;102904.23;;;21.63;46.07
75745;BME280;64359;51.366;-0.222;2023-03-01T01:37:34;102899.82;;;21.62;45.05
75745;BME280;64359;51.366;-0.222;2023-03-01T01:38:39;102897.10;;;21.62;45.18
75745;BME280;64359;51.366;-0.222;2023-03-01T01:39:45;102899.83;;;21.62;45.63
75745;BME280;64359;51.366;-0.222;2023-03-01T01:40:50;102896.93;;;21.62;45.82
75745;BME280;64359;51.366;-0.222;2023-03-01T01:41:55;102897.84;;;21.62;45.09
75745;BME280;64359;51.366;-0.222;2023-03-01T01:42:59;102894.19;;;21.62;44.09
75745;BME280;64359;51.366;-0.222;2023-03-01T01:44:16;102890.36;;;21.63;44.28
75745;BME280;64359;51.366;-0.222;2023-03-01T01:45:33;102888.74;;;21.63;43.68
75745;BME280;64359;51.366;-0.222;2023-03-01T01:46:39;102888.77;;;21.63;44.24
75745;BME280;64359;51.366;-0.222;2023-03-01T01:47:44;102886.37;;;21.63;43.60
75745;BME280;64359;51.366;-0.222;2023-03-01T01:48:54;102887.40;;;21.64;43.19
75745;BME280;64359;51.366;-0.222;2023-03-01T01:50:01;102885.54;;;21.64;45.35
75745;BME280;64359;51.366;-0.222;2023-03-01T01:51:06;102882.67;;;21.64;43.96
75745;BME280;64359;51.366;-0.222;2023-03-01T01:52:16;102878.83;;;21.64;44.75
75745;BME280;64359;51.366;-0.222;2023-03-01T01:53:23;102875.95;;;21.64;43.53
75745;BME280;64359;51.366;-0.222;2023-03-01T01:54:31;102875.91;;;21.64;44.89
75745;BME280;64359;51.366;-0.222;2023-03-01T01:55:43;102873.38;;;21.64;43.94
75745;BME280;64359;51.366;-0.222;2023-03-01T01:56:54;102874.25;;;21.65;43.95
75745;BME280;64359;51.366;-0.222;2023-03-01T01:58:01;102876.38;;;21.65;43.30
75745;BME280;64359;51.366;-0.222;2023-03-01T01:59:06;102875.11;;;21.65;44.28
75745;BME280;64359;51.366;-0.222;2023-03-01T02:00:15;102872.38;;;21.65;43.14
75745;BME280;64359;51.366;-0.222;2023-03-01T02:01:20;102874.12;;;21.66;44.49
75745;BME280;64359;51.366;-0.222;2023-03-01T02:02:25;102875.58;;;21.66;44.71
75745;BME280;64359;51.366;-0.222;2023-03-01T02:03:31;102873.69;;;21.67;45.61
75745;BME280;64359;51.366;-0.222;2023-03-01T02:04:40;102868.12;;;21.66;46.32
75745;BME280;64359;51.366;-0.222;2023-03-01T02:05:49;102865.58;;;21.67;46.13
75745;BME280;64359;51.366;-0.222;2023-03-01T02:07:00;102865.78;;;21.66;44.76
75745;BME280;64359;51.366;-0.222;2023-03-01T02:08:06;102861.98;;;21.66;43.92
75745;BME280;64359;51.366;-0.222;2023-03-01T02:09:14;102862.15;;;21.67;43.62
75745;BME280;64359;51.366;-0.222;2023-03-01T02:10:20;102865.03;;;21.67;43.82
75745;BME280;64359;51.366;-0.222;2023-03-01T02:11:25;102860.92;;;21.66;43.70
75745;BME280;64359;51.366;-0.222;2023-03-01T02:12:31;102856.38;;;21.66;43.67
75745;BME280;64359;51.366;-0.222;2023-03-01T02:13:36;102858.39;;;21.66;43.79
75745;BME280;64359;51.366;-0.222;2023-03-01T02:14:41;102858.92;;;21.66;43.61
75745;BME280;64359;51.366;-0.222;2023-03-01T02:15:45;102855.13;;;21.66;43.32
75745;BME280;64359;51.366;-0.222;2023-03-01T02:16:50;102852.75;;;21.66;42.85
75745;BME280;64359;51.366;-0.222;2023-03-01T02:17:55;102852.21;;;21.66;42.78
75745;BME280;64359;51.366;-0.222;2023-03-01T02:19:00;102850.92;;;21.66;42.92
75745;BME280;64359;51.366;-0.222;2023-03-01T02:20:12;102845.98;;;21.67;42.56
75745;BME280;64359;51.366;-0.222;2023-03-01T02:21:33;102843.16;;;21.67;42.85
75745;BME280;64359;51.366;-0.222;2023-03-01T02:22:41;102844.79;;;21.67;43.06
75745;BME280;64359;51.366;-0.222;2023-03-01T02:23:47;102845.04;;;21.66;43.10
75745;BME280;64359;51.366;-0.222;2023-03-01T02:25:00;102843.22;;;21.66;42.91
75745;BME280;64359;51.366;-0.222;2023-03-01T02:26:09;102837.67;;;21.65;43.76
75745;BME280;64359;51.366;-0.222;2023-03-01T02:27:17;102836.80;;;21.65;44.16
75745;BME280;64359;51.366;-0.222;2023-03-01T02:28:34;102838.27;;;21.65;44.20
75745;BME280;64359;51.366;-0.222;2023-03-01T02:29:40;102834.71;;;21.64;44.45
75745;BME280;64359;51.366;-0.222;2023-03-01T02:30:49;102830.92;;;21.64;44.24
75745;BME280;64359;51.366;-0.222;2023-03-01T02:32:12;102832.98;;;21.64;44.08
75745;BME280;64359;51.366;-0.222;2023-03-01T02:33:18;102836.26;;;21.63;43.20
75745;BME280;64359;51.366;-0.222;2023-03-01T02:34:24;102832.83;;;21.63;43.02
75745;BME280;64359;51.366;-0.222;2023-03-01T02:35:30;102835.37;;;21.63;43.02
75745;BME280;64359;51.366;-0.222;2023-03-01T02:36:38;102835.52;;;21.63;42.90
75745;BME280;64359;51.366;-0.222;2023-03-01T02:37:44;102838.20;;;21.64;43.22
75745;BME280;64359;51.366;-0.222;2023-03-01T02:38:49;102834.40;;;21.64;43.19
75745;BME280;64359;51.366;-0.222;2023-03-01T02:39:57;102834.17;;;21.64;42.40
75745;BME280;64359;51.366;-0.222;2023-03-01T02:41:03;102833.23;;;21.65;42.88
75745;BME280;64359;51.366;-0.222;2023-03-01T02:42:12;102832.35;;;21.64;42.66
75745;BME280;64359;51.366;-0.222;2023-03-01T02:43:17;102827.27;;;21.65;42.50
75745;BME280;64359;51.366;-0.222;2023-03-01T02:44:23;102827.38;;;21.65;43.07
75745;BME280;64359;51.366;-0.222;2023-03-01T02:45:28;102828.95;;;21.66;43.01
75745;BME280;64359;51.366;-0.222;2023-03-01T02:46:32;102825.86;;;21.66;43.07
75745;BME280;64359;51.366;-0.222;2023-03-01T02:47:37;102825.43;;;21.67;42.48
75745;BME280;64359;51.366;-0.222;2023-03-01T02:48:44;102825.55;;;21.67;42.17
75745;BME280;64359;51.366;-0.222;2023-03-01T02:49:49;102826.63;;;21.67;42.13
75745;BME280;64359;51.366;-0.222;2023-03-01T02:51:04;102823.86;;;21.68;42.45
75745;BME280;64359;51.366;-0.222;2023-03-01T02:52:40;102823.86;;;21.68;42.18
75745;BME280;64359;51.366;-0.222;2023-03-01T02:53:56;102824.37;;;21.68;42.98
75745;BME280;64359;51.366;-0.222;2023-03-01T02:55:06;102818.23;;;21.68;42.88
75745;BME280;64359;51.366;-0.222;2023-03-01T02:56:11;102813.75;;;21.68;43.44
75745;BME280;64359;51.366;-0.222;2023-03-01T02:57:17;102813.33;;;21.68;42.21
75745;BME280;64359;51.366;-0.222;2023-03-01T02:58:22;102814.20;;;21.69;42.88
75745;BME280;64359;51.366;-0.222;2023-03-01T02:59:31;102810.17;;;21.69;42.38
75745;BME280;64359;51.366;-0.222;2023-03-01T03:00:40;102810.02;;;21.69;43.13
75745;BME280;64359;51.366;-0.222;2023-03-01T03:01:50;102811.95;;;21.70;42.64
75745;BME280;64359;51.366;-0.222;2023-03-01T03:02:55;102808.66;;;21.70;43.05
75745;BME280;64359;51.366;-0.222;2023-03-01T03:04:01;102805.20;;;21.70;43.22
75745;BME280;64359;51.366;-0.222;2023-03-01T03:05:09;102805.38;;;21.70;43.83
75745;BME280;64359;51.366;-0.222;2023-03-01T03:06:16;102799.92;;;21.70;43.96
75745;BME280;64359;51.366;-0.222;2023-03-01T03:07:21;102802.30;;;21.70;42.69
75745;BME280;64359;51.366;-0.222;2023-03-01T03:08:25;102803.21;;;21.70;43.49
75745;BME280;64359;51.366;-0.222;2023-03-01T03:09:29;102804.95;;;21.71;43.53
75745;BME280;64359;51.366;-0.222;2023-03-01T03:10:36;102799.17;;;21.71;43.01
75745;BME280;64359;51.366;-0.222;2023-03-01T03:11:40;102801.33;;;21.71;43.28
75745;BME280;64359;51.366;-0.222;2023-03-01T03:12:47;102801.35;;;21.71;43.22
75745;BME280;64359;51.366;-0.222;2023-03-01T03:13:52;102796.84;;;21.70;43.18
75745;BME280;64359;51.366;-0.222;2023-03-01T03:14:57;102797.21;;;21.70;43.06
75745;BME280;64359;51.366;-0.222;2023-03-01T03:16:03;102797.61;;;21.70;43.41
75745;BME280;64359;51.366;-0.222;2023-03-01T03:17:08;102795.81;;;21.70;43.37
75745;BME280;64359;51.366;-0.222;2023-03-01T03:18:14;102793.96;;;21.70;43.04
75745;BME280;64359;51.366;-0.222;2023-03-01T03:19:20;102795.81;;;21.70;43.64
75745;BME280;64359;51.366;-0.222;2023-03-01T03:20:26;102794.53;;;21.70;43.12
75745;BME280;64359;51.366;-0.222;2023-03-01T03:21:31;102797.77;;;21.70;43.51
75745;BME280;64359;51.366;-0.222;2023-03-01T03:22:36;102797.10;;;21.70;43.63
75745;BME280;64359;51.366;-0.222;2023-03-01T03:23:40;102799.30;;;21.69;43.43
75745;BME280;64359;51.366;-0.222;2023-03-01T03:24:44;102797.33;;;21.69;43.47
75745;BME280;64359;51.366;-0.222;2023-03-01T03:25:51;102797.16;;;21.69;43.53
75745;BME280;64359;51.366;-0.222;2023-03-01T03:26:55;102796.10;;;21.69;43.71
75745;BME280;64359;51.366;-0.222;2023-03-01T03:27:59;102796.80;;;21.69;43.20
75745;BME280;64359;51.366;-0.222;2023-03-01T03:29:04;102794.33;;;21.68;43.27
75745;BME280;64359;51.366;-0.222;2023-03-01T03:30:11;102791.63;;;21.68;43.49
75745;BME280;64359;51.366;-0.222;2023-03-01T03:31:16;102791.79;;;21.68;43.43
75745;BME280;64359;51.366;-0.222;2023-03-01T03:32:20;102791.45;;;21.68;44.00
75745;BME280;64359;51.366;-0.222;2023-03-01T03:33:25;102789.45;;;21.68;43.50
75745;BME280;64359;51.366;-0.222;2023-03-01T03:34:29;102791.08;;;21.68;43.05
75745;BME280;64359;51.366;-0.222;2023-03-01T03:35:39;102785.29;;;21.68;43.61
75745;BME280;64359;51.366;-0.222;2023-03-01T03:36:44;102783.11;;;21.68;42.53
75745;BME280;64359;51.366;-0.222;2023-03-01T03:37:48;102787.23;;;21.69;42.51
75745;BME280;64359;51.366;-0.222;2023-03-01T03:39:09;102786.85;;;21.69;42.74
75745;BME280;64359;51.366;-0.222;2023-03-01T03:40:14;102784.27;;;21.70;42.29
75745;BME280;64359;51.366;-0.222;2023-03-01T03:41:18;102782.48;;;21.70;41.84
75745;BME280;64359;51.366;-0.222;2023-03-01T03:42:23;102782.05;;;21.70;41.66
75745;BME280;64359;51.366;-0.222;2023-03-01T03:43:27;102778.05;;;21.70;42.31
75745;BME280;64359;51.366;-0.222;2023-03-01T03:44:32;102777.79;;;21.71;41.84
75745;BME280;64359;51.366;-0.222;2023-03-01T03:45:37;102774.45;;;21.72;41.81
75745;BME280;64359;51.366;-0.222;2023-03-01T03:46:41;102775.90;;;21.72;41.62
75745;BME280;64359;51.366;-0.222;2023-03-01T03:47:46;102772.21;;;21.73;41.82
75745;BME280;64359;51.366;-0.222;2023-03-01T03:48:50;102771.61;;;21.73;42.23
75745;BME280;64359;51.366;-0.222;2023-03-01T03:49:54;102773.04;;;21.74;42.21
75745;BME280;64359;51.366;-0.222;2023-03-01T03:50:59;102772.24;;;21.74;42.69
75745;BME280;64359;51.366;-0.222;2023-03-01T03:52:03;102770.44;;;21.74;42.65
75745;BME280;64359;51.366;-0.222;2023-03-01T03:53:10;102770.38;;;21.75;43.35
75745;BME280;64359;51.366;-0.222;2023-03-01T03:54:15;102766.63;;;21.74;43.10
75745;BME280;64359;51.366;-0.222;2023-03-01T03:55:20;102768.02;;;21.75;43.18
75745;BME280;64359;51.366;-0.222;2023-03-01T03:56:24;102769.47;;;21.75;42.43
75745;BME280;64359;51.366;-0.222;2023-03-01T03:57:29;102769.61;;;21.75;42.09
75745;BME280;64359;51.366;-0.222;2023-03-01T03:58:33;102769.75;;;21.76;42.55
75745;BME280;64359;51.366;-0.222;2023-03-01T03:59:38;102767.27;;;21.75;43.23
75745;BME280;64359;51.366;-0.222;2023-03-01T04:00:43;102765.77;;;21.76;43.47
75745;BME280;64359;51.366;-0.222;2023-03-01T04:01:48;102763.73;;;21.76;43.54
75745;BME280;64359;51.366;-0.222;2023-03-01T04:02:52;102765.75;;;21.76;42.76
75745;BME280;64359;51.366;-0.222;2023-03-01T04:03:59;102769.39;;;21.76;42.54
75745;BME280;64359;51.366;-0.222;2023-03-01T04:05:09;102768.30;;;21.76;42.82
75745;BME280;64359;51.366;-0.222;2023-03-01T04:06:14;102766.66;;;21.76;42.41
75745;BME280;64359;51.366;-0.222;2023-03-01T04:07:18;102768.66;;;21.75;42.45
75745;BME280;64359;51.366;-0.222;2023-03-01T04:08:23;102767.95;;;21.76;41.74
75745;BME280;64359;51.366;-0.222;2023-03-01T04:09:27;102769.95;;;21.75;42.38
75745;BME280;64359;51.366;-0.222;2023-03-01T04:10:35;102763.59;;;21.76;42.20
75745;BME280;64359;51.366;-0.222;2023-03-01T04:11:40;102763.95;;;21.76;42.94
75745;BME280;64359;51.366;-0.222;2023-03-01T04:12:44;102762.73;;;21.75;43.27
75745;BME280;64359;51.366;-0.222;2023-03-01T04:13:49;102765.79;;;21.76;43.46
75745;BME280;64359;51.366;-0.222;2023-03-01T04:14:54;102760.23;;;21.75;43.33
75745;BME280;64359;51.366;-0.222;2023-03-01T04:15:58;102758.85;;;21.74;43.45
75745;BME280;64359;51.366;-0.222;2023-03-01T04:17:03;102756.73;;;21.74;43.09
75745;BME280;64359;51.366;-0.222;2023-03-01T04:18:08;102752.06;;;21.74;42.68
75745;BME280;64359;51.366;-0.222;2023-03-01T04:19:13;102752.77;;;21.74;42.50
75745;BME280;64359;51.366;-0.222;2023-03-01T04:20:19;102748.80;;;21.74;42.98
75745;BME280;64359;51.366;-0.222;2023-03-01T04:21:27;102749.54;;;21.73;43.15
75745;BME280;64359;51.366;-0.222;2023-03-01T04:22:32;102749.06;;;21.73;43.08
75745;BME280;64359;51.366;-0.222;2023-03-01T04:23:37;102745.35;;;21.72;43.05
75745;BME280;64359;51.366;-0.222;2023-03-01T04:24:42;102746.20;;;21.72;43.27
75745;BME280;64359;51.366;-0.222;2023-03-01T04:25:49;102744.46;;;21.72;43.07
75745;BME280;64359;51.366;-0.222;2023-03-01T04:26:56;102740.33;;;21.71;43.68
75745;BME280;64359;51.366;-0.222;2023-03-01T04:28:01;102735.88;;;21.71;43.39
75745;BME280;64359;51.366;-0.222;2023-03-01T04:29:05;102734.56;;;21.71;43.73
75745;BME280;64359;51.366;-0.222;2023-03-01T04:30:11;102732.93;;;21.71;43.48
75745;BME280;64359;51.366;-0.222;2023-03-01T04:31:18;102730.05;;;21.71;43.33
75745;BME280;64359;51.366;-0.222;2023-03-01T04:32:24;102728.27;;;21.71;43.09
75745;BME280;64359;51.366;-0.222;2023-03-01T04:33:28;102728.39;;;21.71;42.80
75745;BME280;64359;51.366;-0.222;2023-03-01T04:34:32;102728.05;;;21.71;42.36
75745;BME280;64359;51.366;-0.222;2023-03-01T04:35:37;102733.48;;;21.71;41.93
75745;BME280;64359;51.366;-0.222;2023-03-01T04:36:43;102732.87;;;21.72;42.77
75745;BME280;64359;51.366;-0.222;2023-03-01T04:37:47;102732.44;;;21.72;42.44
75745;BME280;64359;51.366;-0.222;2023-03-01T04:38:52;102733.04;;;21.72;42.40
75745;BME280;64359;51.366;-0.222;2023-03-01T04:39:56;102731.02;;;21.72;42.30
75745;BME280;64359;51.366;-0.222;2023-03-01T04:41:01;102732.55;;;21.73;42.16
75745;BME280;64359;51.366;-0.222;2023-03-01T04:42:06;102732.38;;;21.73;42.51
75745;BME280;64359;51.366;-0.222;2023-03-01T04:43:11;102729.79;;;21.74;42.15
75745;BME280;64359;51.366;-0.222;2023-03-01T04:44:17;102730.80;;;21.74;42.03
75745;BME280;64359;51.366;-0.222;2023-03-01T04:45:22;102730.23;;;21.75;41.86
75745;BME280;64359;51.366;-0.222;2023-03-01T04:46:26;102728.95;;;21.75;42.21
75745;BME280;64359;51.366;-0.222;2023-03-01T04:47:31;102722.95;;;21.75;42.06
75745;BME280;64359;51.366;-0.222;2023-03-01T04:48:36;102722.23;;;21.75;43.13
75745;BME280;64359;51.366;-0.222;2023-03-01T04:49:41;102725.23;;;21.76;43.13
75745;BME280;64359;51.366;-0.222;2023-03-01T04:50:45;102723.06;;;21.76;42.97
75745;BME280;64359;51.366;-0.222;2023-03-01T04:51:49;102724.66;;;21.76;42.29
75745;BME280;64359;51.366;-0.222;2023-03-01T04:52:54;102723.04;;;21.76;42.81
75745;BME280;64359;51.366;-0.222;2023-03-01T04:54:01;102723.79;;;21.76;42.47
75745;BME280;64359;51.366;-0.222;2023-03-01T04:55:07;102723.56;;;21.77;42.73
75745;BME280;64359;51.366;-0.222;2023-03-01T04:56:13;102724.45;;;21.77;42.90
75745;BME280;64359;51.366;-0.222;2023-03-01T04:57:17;102724.64;;;21.77;42.19
75745;BME280;64359;51.366;-0.222;2023-03-01T04:58:22;102721.91;;;21.77;42.36
75745;BME280;64359;51.366;-0.222;2023-03-01T04:59:26;102721.54;;;21.77;42.64
75745;BME280;64359;51.366;-0.222;2023-03-01T05:00:31;102722.60;;;21.78;41.94
75745;BME280;64359;51.366;-0.222;2023-03-01T05:01:36;102718.83;;;21.77;41.48
75745;BME280;64359;51.366;-0.222;2023-03-01T05:02:40;102720.77;;;21.78;41.76
75745;BME280;64359;51.366;-0.222;2023-03-01T05:03:47;102720.80;;;21.77;41.65
75745;BME280;64359;51.366;-0.222;2023-03-01T05:04:52;102722.77;;;21.78;42.34
75745;BME280;64359;51.366;-0.222;2023-03-01T05:06:00;102720.23;;;21.77;42.34
75745;BME280;64359;51.366;-0.222;2023-03-01T05:07:04;102721.16;;;21.77;43.05
75745;BME280;64359;51.366;-0.222;2023-03-01T05:08:09;102719.34;;;21.77;42.54
75745;BME280;64359;51.366;-0.222;2023-03-01T05:09:20;102719.36;;;21.77;43.77
75745;BME280;64359;51.366;-0.222;2023-03-01T05:10:25;102718.90;;;21.76;43.49
75745;BME280;64359;51.366;-0.222;2023-03-01T05:11:31;102717.61;;;21.76;42.55
75745;BME280;64359;51.366;-0.222;2023-03-01T05:12:38;102717.78;;;21.76;42.97
75745;BME280;64359;51.366;-0.222;2023-03-01T05:13:43;102717.84;;;21.76;43.17
75745;BME280;64359;51.366;-0.222;2023-03-01T05:14:47;102717.14;;;21.76;43.04
75745;BME280;64359;51.366;-0.222;2023-03-01T05:15:58;102715.50;;;21.76;43.33
75745;BME280;64359;51.366;-0.222;2023-03-01T05:17:03;102718.06;;;21.75;43.37
75745;BME280;64359;51.366;-0.222;2023-03-01T05:18:07;102714.90;;;21.74;43.61
75745;BME280;64359;51.366;-0.222;2023-03-01T05:19:14;102714.56;;;21.74;42.80
75745;BME280;64359;51.366;-0.222;2023-03-01T05:20:19;102716.16;;;21.74;43.08
75745;BME280;64359;51.366;-0.222;2023-03-01T05:21:26;102717.47;;;21.74;43.07
75745;BME280;64359;51.366;-0.222;2023-03-01T05:22:30;102716.25;;;21.74;42.97
75745;BME280;64359;51.366;-0.222;2023-03-01T05:23:35;102716.98;;;21.73;42.97
75745;BME280;64359;51.366;-0.222;2023-03-01T05:24:40;102715.34;;;21.74;43.46
75745;BME280;64359;51.366;-0.222;2023-03-01T05:25:44;102718.44;;;21.73;43.89
75745;BME280;64359;51.366;-0.222;2023-03-01T05:26:49;102719.87;;;21.73;43.62
75745;BME280;64359;51.366;-0.222;2023-03-01T05:27:54;102718.48;;;21.73;43.54
75745;BME280;64359;51.366;-0.222;2023-03-01T05:28:59;102719.36;;;21.73;43.07
75745;BME280;64359;51.366;-0.222;2023-03-01T05:30:05;102715.91;;;21.73;42.66
75745;BME280;64359;51.366;-0.222;2023-03-01T05:31:16;102714.13;;;21.73;42.18
75745;BME280;64359;51.366;-0.222;2023-03-01T05:32:20;102715.50;;;21.74;42.13
75745;BME280;64359;51.366;-0.222;2023-03-01T05:33:25;102712.42;;;21.74;42.42
75745;BME280;64359;51.366;-0.222;2023-03-01T05:34:32;102711.51;;;21.74;42.52
75745;BME280;64359;51.366;-0.222;2023-03-01T05:35:36;102712.39;;;21.74;42.30
75745;BME280;64359;51.366;-0.222;2023-03-01T05:36:41;102712.56;;;21.74;42.17
75745;BME280;64359;51.366;-0.222;2023-03-01T05:37:47;102710.39;;;21.74;42.18
75745;BME280;64359;51.366;-0.222;2023-03-01T05:38:51;102714.30;;;21.75;42.20
75745;BME280;64359;51.366;-0.222;2023-03-01T05:39:56;102710.49;;;21.75;42.02